Time;durP1;ratioP1;P1;durP2;ratioP2;P2;SDS_P1;SDS_P2;PMS_P1;PMS_P2;Temp;Humidity;BMP_temperature;BMP_pressure;BME280_temperature;BME280_humidity;BME280_pressure;Samples;Min_cycle;Max_cycle;Signal;HPM_P1;HPM_P2
2022/12/21 00:01:32;;;;;;;49.25;6.72;;;3.40;99.90;;;;;;5060246;28;20052;-73
2022/12/21 00:04:02;;;;;;;63.70;6.10;;;5.80;99.90;;;;;;5075767;28;20040;-73
2022/12/21 00:06:35;;;;;;;68.47;6.75;;;3.60;99.90;;;;;;5077386;28;20044;-73
2022/12/21 00:09:06;;;;;;;54.20;5.88;;;3.60;99.90;;;;;;5077041;28;20048;-74
2022/12/21 00:11:35;;;;;;;51.90;6.13;;;3.70;99.90;;;;;;5075695;28;20202;-73
2022/12/21 00:14:04;;;;;;;63.45;6.32;;;3.80;99.90;;;;;;5060131;28;20055;-74
2022/12/21 00:16:35;;;;;;;68.30;6.25;;;3.90;99.90;;;;;;5076149;28;20048;-73
2022/12/21 00:19:03;;;;;;;69.25;6.63;;;4.00;99.90;;;;;;5060983;28;20051;-73
2022/12/21 00:21:36;;;;;;;56.05;5.85;;;4.10;99.90;;;;;;5076658;28;20077;-73
2022/12/21 00:24:04;;;;;;;65.40;5.72;;;5.00;99.90;;;;;;5058910;28;20070;-73
2022/12/21 00:26:35;;;;;;;68.45;6.50;;;4.30;99.90;;;;;;5060259;28;20044;-73
2022/12/21 00:29:04;;;;;;;67.68;6.07;;;5.70;99.90;;;;;;5077231;28;20048;-73
2022/12/21 00:31:34;;;;;;;44.10;4.97;;;5.60;99.90;;;;;;5059005;28;20059;-73
2022/12/21 00:34:02;;;;;;;53.30;4.90;;;5.70;99.90;;;;;;5076919;28;20051;-74
2022/12/21 00:36:32;;;;;;;63.83;5.78;;;4.50;99.90;;;;;;5095303;28;20044;-73
2022/12/21 00:39:00;;;;;;;67.30;5.45;;;5.70;99.90;;;;;;5080259;28;20044;-73
2022/12/21 00:41:28;;;;;;;54.88;5.55;;;4.50;99.90;;;;;;5047793;28;20048;-73
2022/12/21 00:43:56;;;;;;;64.97;5.95;;;6.90;99.90;;;;;;5046404;28;20063;-74
2022/12/21 00:46:24;;;;;;;;;;;4.50;99.90;;;;;;5080812;28;20059;-73
2022/12/21 00:48:54;;;;;;;56.63;5.45;;;4.50;99.90;;;;;;5080421;28;19927;-73
2022/12/21 00:51:23;;;;;;;54.70;4.97;;;4.50;99.90;;;;;;5078973;28;20040;-73
2022/12/21 00:53:54;;;;;;;50.97;4.80;;;4.80;99.90;;;;;;5080626;28;20040;-73
2022/12/21 00:56:23;;;;;;;61.10;5.13;;;4.50;99.90;;;;;;5098374;28;20487;-73
2022/12/21 00:58:51;;;;;;;63.95;5.63;;;6.90;99.90;;;;;;5062284;28;20047;-73
2022/12/21 01:01:20;;;;;;;;;;;4.60;99.90;;;;;;5060391;28;20067;-73
2022/12/21 01:03:49;;;;;;;48.70;4.90;;;4.60;99.90;;;;;;5058827;28;20337;-73
2022/12/21 01:06:21;;;;;;;56.53;4.95;;;4.60;99.90;;;;;;5059889;28;20044;-73
2022/12/21 01:08:48;;;;;;;64.50;5.78;;;4.70;99.90;;;;;;5060389;28;20044;-73
2022/12/21 01:11:18;;;;;;;57.65;5.65;;;5.00;99.90;;;;;;5042130;28;20048;-73
2022/12/21 01:13:46;;;;;;;59.17;5.30;;;4.70;99.90;;;;;;5077409;28;20040;-74
2022/12/21 01:16:21;;;;;;;63.65;5.32;;;4.70;99.90;;;;;;5043251;28;20119;-74
2022/12/21 01:18:49;;;;;;;67.68;6.00;;;4.80;99.90;;;;;;5076203;28;20045;-73
2022/12/21 01:21:23;;;;;;;64.97;5.60;;;4.80;99.90;;;;;;5059583;28;20063;-73
2022/12/21 01:23:50;;;;;;;50.92;5.43;;;4.80;99.90;;;;;;5058395;28;20048;-73
2022/12/21 01:26:18;;;;;;;80.72;6.10;;;4.90;99.90;;;;;;5043024;28;20048;-73
2022/12/21 01:28:46;;;;;;;71.45;6.15;;;4.90;99.90;;;;;;5042666;28;20056;-73
2022/12/21 01:31:13;;;;;;;67.63;6.03;;;6.90;99.90;;;;;;5041457;28;20055;-73
2022/12/21 01:33:44;;;;;;;72.95;7.03;;;5.10;99.90;;;;;;5059804;28;20044;-74
2022/12/21 01:36:17;;;;;;;63.72;5.75;;;5.10;99.90;;;;;;5059822;28;20040;-73
2022/12/21 01:38:45;;;;;;;56.42;5.72;;;5.20;99.90;;;;;;5057952;28;20386;-74
2022/12/21 01:41:16;;;;;;;59.47;5.63;;;5.20;99.90;;;;;;5076987;28;20048;-73
2022/12/21 01:44:01;;;;;;;67.18;6.25;;;5.10;99.90;;;;;;5057961;28;20071;-74
2022/12/21 01:46:40;;;;;;;68.10;6.18;;;5.30;99.90;;;;;;5059336;28;20342;-74
2022/12/21 01:49:22;;;;;;;67.03;5.47;;;5.30;99.90;;;;;;5042925;28;20465;-73
2022/12/21 01:51:58;;;;;;;59.30;5.50;;;5.40;99.90;;;;;;5075347;28;20041;-73
2022/12/21 01:54:31;;;;;;;78.68;6.38;;;5.50;99.90;;;;;;5042917;28;20458;-73
2022/12/21 01:57:05;;;;;;;61.85;5.70;;;5.50;99.90;;;;;;5075271;28;20044;-73
2022/12/21 01:59:37;;;;;;;61.75;5.72;;;5.50;99.90;;;;;;5064212;28;20048;-74
2022/12/21 02:02:13;;;;;;;69.28;6.30;;;7.60;99.90;;;;;;5062006;28;20059;-74
2022/12/21 02:04:41;;;;;;;62.70;5.43;;;5.60;99.90;;;;;;5044942;28;20063;-74
2022/12/21 02:07:09;;;;;;;60.20;5.82;;;5.60;99.90;;;;;;5045351;28;20055;-74
2022/12/21 02:09:42;;;;;;;57.10;6.32;;;7.90;99.90;;;;;;5096357;28;20059;-74
2022/12/21 02:12:14;;;;;;;53.95;5.75;;;6.60;99.90;;;;;;5061038;28;20047;-74
2022/12/21 02:14:45;;;;;;;60.45;6.13;;;8.10;99.90;;;;;;5096315;28;20058;-73
2022/12/21 02:17:34;;;;;;;54.13;5.72;;;5.70;99.90;;;;;;5077363;28;20044;-73
2022/12/21 02:20:46;;;;;;;50.00;5.60;;;5.70;99.90;;;;;;5062132;28;20377;-74
2022/12/21 02:23:39;;;;;;;53.92;5.50;;;5.80;99.90;;;;;;5057850;28;20503;-74
2022/12/21 02:26:41;;;;;;;48.42;5.90;;;5.80;99.90;;;;;;5062221;28;20052;-73
2022/12/21 02:29:25;;;;;;;53.83;5.70;;;5.80;99.90;;;;;;5072954;28;20059;-74
2022/12/21 02:32:03;;;;;;;57.13;5.65;;;5.90;99.90;;;;;;5077132;28;20044;-73
2022/12/21 02:34:44;;;;;;;46.90;5.07;;;5.90;99.90;;;;;;5078432;28;20055;-74
2022/12/21 02:37:45;;;;;;;49.75;4.90;;;7.50;99.90;;;;;;5076951;28;20098;-74
2022/12/21 02:40:19;;;;;;;53.53;4.97;;;6.00;99.90;;;;;;5060223;28;20052;-73
2022/12/21 02:45:55;;;;;;;48.83;5.07;;;6.10;99.90;;;;;;5077944;28;20063;-73
2022/12/21 02:48:42;;;;;;;46.70;4.88;;;6.20;99.90;;;;;;5061017;28;20055;-74
2022/12/21 02:51:17;;;;;;;44.42;4.85;;;6.10;99.90;;;;;;5043999;28;20044;-74
2022/12/21 02:53:48;;;;;;;41.72;4.47;;;6.20;99.90;;;;;;5061263;28;20573;-74
2022/12/21 02:56:17;;;;;;;35.22;4.57;;;7.10;99.90;;;;;;5061499;28;20415;-74
2022/12/21 02:58:47;;;;;;;40.70;4.50;;;6.10;99.90;;;;;;5075947;28;20059;-74
2022/12/21 03:01:25;;;;;;;38.60;3.88;;;8.10;99.90;;;;;;5062191;28;20044;-74
2022/12/21 03:04:15;;;;;;;42.50;4.60;;;6.10;99.90;;;;;;5060208;28;20044;-74
2022/12/21 03:06:46;;;;;;;39.08;4.60;;;6.10;99.90;;;;;;5061276;28;20048;-74
2022/12/21 03:09:26;;;;;;;44.05;4.03;;;6.10;99.90;;;;;;5077446;28;20043;-74
2022/12/21 03:12:06;;;;;;;42.53;4.05;;;6.00;99.90;;;;;;5076692;28;20044;-74
2022/12/21 03:14:57;;;;;;;44.67;4.07;;;5.90;99.90;;;;;;5061030;28;20055;-74
2022/12/21 03:17:47;;;;;;;45.45;4.28;;;5.90;99.90;;;;;;5094109;28;20465;-74
2022/12/21 03:20:23;;;;;;;47.30;4.43;;;5.90;99.90;;;;;;5061092;28;20044;-74
2022/12/21 03:23:02;;;;;;;35.10;4.18;;;5.90;99.90;;;;;;5077296;28;20040;-74
2022/12/21 03:25:43;;;;;;;46.05;4.53;;;5.90;99.90;;;;;;5076296;28;20052;-73
2022/12/21 03:28:15;;;;;;;40.70;4.40;;;6.00;99.90;;;;;;5061190;28;20052;-73
2022/12/21 03:30:46;;;;;;;36.20;4.10;;;6.70;99.90;;;;;;5060028;28;20056;-73
2022/12/21 03:33:18;;;;;;;36.55;3.78;;;8.40;99.90;;;;;;5077440;28;20480;-73
2022/12/21 03:35:49;;;;;;;39.72;4.75;;;6.80;99.90;;;;;;5060769;28;20059;-73
2022/12/21 03:38:31;;;;;;;43.70;4.32;;;7.30;99.90;;;;;;5059254;28;20059;-73
2022/12/21 03:41:02;;;;;;;39.55;4.22;;;5.90;99.90;;;;;;5061144;28;20036;-73
2022/12/21 03:43:35;;;;;;;48.50;4.25;;;5.90;99.90;;;;;;5059666;28;20314;-73
2022/12/21 03:46:12;;;;;;;39.88;4.45;;;5.80;99.90;;;;;;5094632;28;20055;-73
2022/12/21 03:48:52;;;;;;;37.40;4.30;;;5.70;99.90;;;;;;5060323;28;20059;-73
2022/12/21 03:51:33;;;;;;;36.72;4.03;;;5.70;99.90;;;;;;5076226;28;20377;-73
2022/12/21 03:54:09;;;;;;;39.63;4.55;;;5.70;99.90;;;;;;5094860;28;20495;-73
2022/12/21 03:56:39;;;;;;;45.72;4.55;;;5.80;99.90;;;;;;5093740;28;20036;-73
2022/12/21 03:59:11;;;;;;;40.10;4.90;;;5.80;99.90;;;;;;5076790;28;20044;-74
2022/12/21 04:02:04;;;;;;;39.58;4.22;;;7.40;99.90;;;;;;5076557;28;20051;-73
2022/12/21 04:04:43;;;;;;;30.45;3.97;;;5.80;99.90;;;;;;5076164;28;20044;-73
2022/12/21 04:07:13;;;;;;;47.08;4.50;;;5.90;99.90;;;;;;5094781;28;20055;-73
2022/12/21 04:09:41;;;;;;;40.20;4.10;;;5.90;99.90;;;;;;5094691;28;20044;-73
2022/12/21 04:14:59;;;;;;;29.33;3.92;;;5.80;99.90;;;;;;5064646;28;20044;-73
2022/12/21 04:17:26;;;;;;;42.40;4.63;;;5.70;99.90;;;;;;5097669;28;20052;-73
2022/12/21 04:19:59;;;;;;;30.48;4.13;;;5.80;99.90;;;;;;5064460;28;20044;-73
2022/12/21 04:28:07;;;;;;;37.63;4.40;;;5.70;99.90;;;;;;5098529;28;20052;-73
2022/12/21 04:30:55;;;;;;;32.83;4.00;;;5.70;99.90;;;;;;5082817;28;20051;-73
2022/12/21 04:33:25;;;;;;;43.47;4.40;;;5.80;99.90;;;;;;5080600;28;20499;-73
2022/12/21 04:38:41;;;;;;;27.98;4.15;;;5.60;99.90;;;;;;5079483;28;20048;-73
2022/12/21 04:41:09;;;;;;;42.20;4.55;;;5.50;99.90;;;;;;5063956;28;20044;-73
2022/12/21 04:43:38;;;;;;;38.38;4.18;;;5.50;99.90;;;;;;5079630;28;20048;-73
2022/12/21 04:46:09;;;;;;;44.75;3.92;;;5.50;99.90;;;;;;5097886;28;20052;-73
2022/12/21 04:48:37;;;;;;;42.55;4.40;;;5.40;99.90;;;;;;5079963;28;20058;-73
2022/12/21 04:51:06;;;;;;;51.35;4.47;;;6.60;99.90;;;;;;5078793;28;20048;-73
2022/12/21 04:53:34;;;;;;;41.47;4.43;;;5.50;99.90;;;;;;5098217;28;20040;-73
2022/12/21 04:56:01;;;;;;;45.60;4.40;;;6.00;99.90;;;;;;5063807;28;20047;-73
2022/12/21 04:58:29;;;;;;;41.88;4.85;;;5.40;99.90;;;;;;5078798;28;20040;-73
2022/12/21 05:00:56;;;;;;;45.03;4.78;;;7.20;99.90;;;;;;5097614;28;20063;-73
2022/12/21 05:03:24;;;;;;;46.63;5.00;;;7.30;99.90;;;;;;5079036;28;20055;-73
2022/12/21 05:05:52;;;;;;;54.65;5.10;;;5.30;99.90;;;;;;5079931;28;20052;-73
2022/12/21 05:08:19;;;;;;;49.65;4.82;;;6.20;99.90;;;;;;5098132;28;20044;-73
2022/12/21 05:10:50;;;;;;;41.63;4.40;;;5.30;99.90;;;;;;5096647;28;20055;-73
2022/12/21 05:13:18;;;;;;;45.55;4.35;;;5.30;99.90;;;;;;5097458;28;20365;-73
2022/12/21 05:15:45;;;;;;;38.53;4.03;;;5.30;99.90;;;;;;5063364;28;20476;-73
2022/12/21 05:18:13;;;;;;;34.60;4.30;;;5.30;99.90;;;;;;5096227;28;20044;-73
2022/12/21 05:20:42;;;;;;;32.88;4.00;;;6.90;99.90;;;;;;5062824;28;20055;-73
2022/12/21 05:23:16;;;;;;;35.35;4.07;;;5.30;99.90;;;;;;5077943;28;20055;-74
2022/12/21 05:25:43;;;;;;;35.80;4.10;;;7.50;99.90;;;;;;5063347;28;20059;-73
2022/12/21 05:28:11;;;;;;;34.58;4.07;;;5.30;99.90;;;;;;5097226;28;20070;-73
2022/12/21 05:30:39;;;;;;;38.13;4.38;;;5.30;99.90;;;;;;5078339;28;20044;-73
2022/12/21 05:33:06;;;;;;;;;;;6.60;99.90;;;;;;5080164;28;20044;-73
2022/12/21 05:35:41;;;;;;;28.83;3.33;;;5.30;99.90;;;;;;5079526;28;20352;-73
2022/12/21 05:38:09;;;;;;;40.63;4.10;;;5.40;99.90;;;;;;5078599;28;20059;-73
2022/12/21 05:40:36;;;;;;;25.45;3.17;;;5.30;99.90;;;;;;5079347;28;20036;-73
2022/12/21 05:43:05;;;;;;;31.90;3.35;;;5.30;99.90;;;;;;5079401;28;20052;-73
2022/12/21 05:45:33;;;;;;;21.08;3.03;;;5.30;99.90;;;;;;5061376;28;20480;-74
2022/12/21 05:48:00;;;;;;;41.45;4.00;;;5.30;99.90;;;;;;5097322;28;20380;-73
2022/12/21 05:50:28;;;;;;;29.67;3.55;;;5.30;99.90;;;;;;5078148;28;20040;-73
2022/12/21 05:52:55;;;;;;;34.25;3.15;;;6.00;99.90;;;;;;5079235;28;20052;-73
2022/12/21 05:55:23;;;;;;;36.38;3.25;;;7.70;99.90;;;;;;5079110;28;20040;-73
2022/12/21 05:57:51;;;;;;;34.40;4.07;;;6.10;99.90;;;;;;5077735;28;20043;-73
2022/12/21 06:00:19;;;;;;;30.73;3.58;;;5.70;99.90;;;;;;5078857;28;20384;-73
2022/12/21 06:02:46;;;;;;;42.40;4.97;;;5.40;99.90;;;;;;5079100;28;20074;-73
2022/12/21 06:05:14;;;;;;;38.10;3.65;;;5.40;99.90;;;;;;5095450;28;20063;-73
2022/12/21 06:07:41;;;;;;;38.25;3.83;;;7.70;99.90;;;;;;5079317;28;20051;-73
2022/12/21 06:10:10;;;;;;;37.47;4.05;;;5.50;99.90;;;;;;5077520;28;20211;-73
2022/12/21 06:12:37;;;;;;;;;;;5.50;99.90;;;;;;5062444;28;20051;-73
2022/12/21 06:15:05;;;;;;;41.47;3.90;;;5.60;99.90;;;;;;5078357;28;19920;-73
2022/12/21 06:17:33;;;;;;;35.00;4.05;;;5.60;99.90;;;;;;5077733;28;20044;-73
2022/12/21 06:20:00;;;;;;;38.70;4.38;;;7.50;99.90;;;;;;5078767;28;20036;-73
2022/12/21 06:22:33;;;;;;;41.53;4.07;;;5.70;99.90;;;;;;5062035;28;20063;-73
2022/12/21 06:25:02;;;;;;;37.70;4.18;;;6.30;99.90;;;;;;5094822;28;20055;-73
2022/12/21 06:27:30;;;;;;;41.60;4.20;;;8.00;99.90;;;;;;5078439;28;20048;-73
2022/12/21 06:29:57;;;;;;;39.78;4.05;;;5.70;99.90;;;;;;5077718;28;20067;-73
2022/12/21 06:32:25;;;;;;;35.67;5.28;;;7.80;99.90;;;;;;5078522;28;20048;-73
2022/12/21 06:34:52;;;;;;;45.50;4.68;;;6.10;99.90;;;;;;5094985;28;20047;-73
2022/12/21 06:37:20;;;;;;;37.97;5.35;;;5.80;99.90;;;;;;5094709;28;20032;-73
2022/12/21 06:39:50;;;;;;;44.00;5.13;;;7.60;99.90;;;;;;5061332;28;20055;-73
2022/12/21 06:42:18;;;;;;;37.45;5.22;;;5.90;99.90;;;;;;5045052;28;20051;-74
2022/12/21 06:44:46;;;;;;;;;;;7.10;99.90;;;;;;5061298;28;20044;-73
2022/12/21 06:47:13;;;;;;;43.30;5.35;;;6.00;99.90;;;;;;5078268;28;19927;-73
2022/12/21 06:49:41;;;;;;;39.92;5.13;;;7.20;99.90;;;;;;5077717;28;20079;-73
2022/12/21 06:52:08;;;;;;;39.38;4.90;;;6.40;99.90;;;;;;5060089;28;20063;-74
2022/12/21 06:54:36;;;;;;;50.38;5.18;;;6.10;99.90;;;;;;5077658;28;20063;-74
2022/12/21 06:57:03;;;;;;;42.20;5.72;;;6.20;99.90;;;;;;5080803;28;20039;-74
2022/12/21 06:59:35;;;;;;;47.40;4.93;;;8.30;99.90;;;;;;5115533;28;20486;-74
2022/12/21 07:02:03;;;;;;;49.78;5.30;;;6.30;99.90;;;;;;5081220;28;20058;-74
2022/12/21 07:04:31;;;;;;;46.05;5.30;;;7.10;99.90;;;;;;5114513;28;20052;-74
2022/12/21 07:06:58;;;;;;;42.20;4.95;;;8.30;99.90;;;;;;5081607;28;20043;-74
2022/12/21 07:09:26;;;;;;;50.70;5.75;;;6.30;99.90;;;;;;5098194;28;20133;-73
2022/12/21 07:11:53;;;;;;;42.95;5.72;;;6.80;99.90;;;;;;5113822;28;20055;-74
2022/12/21 07:14:21;;;;;;;44.25;5.00;;;6.40;99.90;;;;;;5081094;28;20066;-74
2022/12/21 07:16:48;;;;;;;53.40;6.15;;;6.50;99.90;;;;;;5113377;28;20048;-74
2022/12/21 07:19:16;;;;;;;43.28;5.30;;;6.40;99.90;;;;;;5097801;28;20047;-74
2022/12/21 07:21:43;;;;;;;42.25;4.93;;;8.70;99.90;;;;;;5097727;28;20376;-74
2022/12/21 07:24:11;;;;;;;49.92;6.07;;;8.60;99.90;;;;;;5073586;28;20055;-74
2022/12/21 07:26:38;;;;;;;52.88;5.53;;;6.50;99.90;;;;;;5115691;28;20342;-74
2022/12/21 07:29:06;;;;;;;50.53;5.93;;;8.70;99.90;;;;;;5097588;28;20403;-74
2022/12/21 07:31:33;;;;;;;43.20;5.20;;;6.60;99.90;;;;;;5096298;28;20058;-73
2022/12/21 07:34:01;;;;;;;44.45;5.22;;;6.70;99.90;;;;;;5063919;28;20054;-74
2022/12/21 07:36:28;;;;;;;41.17;4.90;;;6.90;99.90;;;;;;5081006;28;20055;-74
2022/12/21 07:38:56;;;;;;;49.58;4.68;;;6.70;99.90;;;;;;5097358;28;20031;-74
2022/12/21 07:41:23;;;;;;;44.92;4.75;;;6.70;99.90;;;;;;5080735;28;20062;-74
2022/12/21 07:43:51;;;;;;;47.63;4.70;;;6.70;99.90;;;;;;5079477;28;20043;-74
2022/12/21 07:46:45;;;;;;;41.95;4.80;;;6.70;99.90;;;;;;5099051;28;20067;-74
2022/12/21 07:49:15;;;;;;;53.95;5.22;;;6.60;99.90;;;;;;5081064;28;20506;-74
2022/12/21 07:51:42;;;;;;;47.75;5.03;;;6.70;99.90;;;;;;5096192;28;20062;-74
2022/12/21 07:54:10;;;;;;;58.45;5.30;;;6.10;99.90;;;;;;5097138;28;20384;-74
2022/12/21 07:56:37;;;;;;;54.03;6.25;;;7.30;99.90;;;;;;5096191;28;20058;-74
2022/12/21 07:59:05;;;;;;;48.25;4.45;;;6.90;99.90;;;;;;5076995;28;20036;-75
2022/12/21 08:01:32;;;;;;;51.83;6.47;;;6.70;99.90;;;;;;5076768;28;20459;-74
2022/12/21 08:04:00;;;;;;;54.17;6.25;;;6.80;99.90;;;;;;5093511;28;20052;-74
2022/12/21 08:06:27;;;;;;;54.00;7.10;;;6.80;99.90;;;;;;5094404;28;20484;-71
2022/12/21 08:08:55;;;;;;;39.10;5.78;;;6.90;99.90;;;;;;5076647;28;20044;-74
2022/12/21 08:11:23;;;;;;;;;;;6.90;99.90;;;;;;5042812;28;20357;-74
2022/12/21 08:13:51;;;;;;;48.05;6.80;;;7.00;99.90;;;;;;5076344;28;19927;-74
2022/12/21 08:16:19;;;;;;;52.40;8.13;;;7.00;99.90;;;;;;5059822;28;20056;-75
2022/12/21 08:18:47;;;;;;;52.75;7.95;;;8.90;99.90;;;;;;5075500;28;20055;-75
2022/12/21 08:21:15;;;;;;;;;;;7.20;99.90;;;;;;5076969;28;20048;-75
2022/12/21 08:23:43;;;;;;;48.65;7.65;;;7.30;99.90;;;;;;5058564;28;20272;-74
2022/12/21 08:26:12;;;;;;;59.97;9.65;;;7.40;99.90;;;;;;5094166;28;20055;-74
2022/12/21 08:28:41;;;;;;;47.40;6.75;;;8.30;99.90;;;;;;5059552;28;20047;-75
2022/12/21 08:31:13;;;;;;;52.17;7.15;;;7.40;99.90;;;;;;5058613;28;20059;-75
2022/12/21 08:33:42;;;;;;;52.75;8.40;;;9.40;99.90;;;;;;5076452;28;20036;-75
2022/12/21 08:36:15;;;;;;;47.88;7.20;;;9.70;99.90;;;;;;5076385;28;20047;-75
2022/12/21 08:38:46;;;;;;;43.17;5.78;;;8.70;99.90;;;;;;5075168;28;20043;-77
2022/12/21 08:41:34;;;;;;;52.17;6.82;;;10.10;99.90;;;;;;5045801;28;20052;-74
2022/12/21 08:44:04;;;;;;;49.45;7.45;;;10.20;99.90;;;;;;5079698;28;20044;-77
2022/12/21 08:46:34;;;;;;;50.70;5.43;;;7.80;99.90;;;;;;5093781;28;20468;-75
2022/12/21 08:49:02;;;;;;;47.22;5.93;;;6.90;99.90;;;;;;5125958;28;20063;-76
2022/12/21 08:51:30;;;;;;;56.63;6.43;;;7.90;99.90;;;;;;5094655;28;20071;-76
2022/12/21 08:53:58;;;;;;;49.03;5.78;;;7.90;99.90;;;;;;5114208;28;20043;-76
2022/12/21 08:56:26;;;;;;;43.45;6.05;;;10.40;99.90;;;;;;5095796;28;20060;-76
2022/12/21 08:58:53;;;;;;;50.53;5.65;;;7.90;99.90;;;;;;5083000;28;20062;-75
2022/12/21 09:01:22;;;;;;;50.65;6.40;;;8.00;99.90;;;;;;5100174;28;20113;-76
2022/12/21 09:03:50;;;;;;;51.03;6.00;;;9.00;99.90;;;;;;5099173;28;20384;-76
2022/12/21 09:06:18;;;;;;;48.97;6.18;;;8.30;99.90;;;;;;5100649;28;20047;-76
2022/12/21 09:08:47;;;;;;;53.40;6.05;;;8.30;99.90;;;;;;5100180;28;20152;-75
2022/12/21 09:11:16;;;;;;;48.63;6.18;;;9.10;99.90;;;;;;5082194;28;20051;-76
2022/12/21 09:13:45;;;;;;;57.70;6.32;;;9.20;99.90;;;;;;5100162;28;20043;-76
2022/12/21 09:16:14;;;;;;;;;;;10.30;99.90;;;;;;5100759;28;20039;-76
2022/12/21 09:18:41;;;;;;;47.85;6.70;;;8.10;99.90;;;;;;5099009;28;19931;-77
2022/12/21 09:21:10;;;;;;;49.70;5.72;;;10.00;99.90;;;;;;5100159;28;20043;-76
2022/12/21 09:23:38;;;;;;;45.03;5.63;;;6.10;99.90;;;;;;5098780;28;20048;-77
2022/12/21 09:26:07;;;;;;;49.25;5.60;;;9.90;99.90;;;;;;5099578;28;20062;-76
2022/12/21 09:28:36;;;;;;;33.10;4.80;;;8.10;99.90;;;;;;5117495;28;20048;-76
2022/12/21 09:31:16;;;;;;;47.90;6.78;;;8.40;99.90;;;;;;5094734;28;20048;-77
2022/12/21 09:33:51;;;;;;;39.50;5.20;;;8.30;99.90;;;;;;5117794;28;20052;-77
2022/12/21 09:36:19;;;;;;;52.88;5.30;;;8.30;99.90;;;;;;5083058;28;20047;-76
2022/12/21 09:38:47;;;;;;;49.30;5.20;;;8.40;99.90;;;;;;5081809;28;20048;-76
2022/12/21 09:41:28;;;;;;;43.10;5.25;;;10.00;99.90;;;;;;5083539;28;20052;-77
2022/12/21 09:44:08;;;;;;;36.20;5.13;;;8.40;99.90;;;;;;5110932;28;20051;-76
2022/12/21 09:46:40;;;;;;;39.67;5.05;;;8.50;99.90;;;;;;5096327;28;20036;-77
2022/12/21 09:49:16;;;;;;;32.60;4.95;;;8.50;99.90;;;;;;5082399;28;20157;-76
2022/12/21 09:51:51;;;;;;;31.20;4.63;;;8.60;99.90;;;;;;5116182;28;20048;-76
2022/12/21 09:54:26;;;;;;;27.60;4.63;;;8.60;99.90;;;;;;5099566;28;20048;-76
2022/12/21 09:56:56;;;;;;;30.98;4.55;;;8.70;99.90;;;;;;5116079;28;20153;-76
2022/12/21 09:59:23;;;;;;;29.55;4.68;;;10.60;99.90;;;;;;5081966;28;20043;-76
2022/12/21 10:02:17;;;;;;;33.25;4.10;;;8.80;99.90;;;;;;5082712;28;20043;-77
2022/12/21 10:04:44;;;;;;;29.92;4.13;;;8.80;99.90;;;;;;5098465;28;20039;-76
2022/12/21 10:07:38;;;;;;;31.65;3.80;;;10.00;99.90;;;;;;5085046;28;20040;-77
2022/12/21 10:10:26;;;;;;;21.70;2.95;;;9.90;99.90;;;;;;5115609;28;20360;-76
2022/12/21 10:13:06;;;;;;;29.20;4.03;;;9.00;99.90;;;;;;5099455;28;20039;-76
2022/12/21 10:15:57;;;;;;;28.33;2.67;;;9.00;99.90;;;;;;5098892;28;20498;-76
2022/12/21 10:18:38;;;;;;;25.02;2.72;;;9.00;99.90;;;;;;5115489;28;20058;-76
2022/12/21 10:21:18;;;;;;;21.38;2.83;;;9.00;99.90;;;;;;5098997;28;20047;-76
2022/12/21 10:23:52;;;;;;;22.77;2.30;;;9.00;99.90;;;;;;5115480;28;20054;-77
2022/12/21 10:26:24;;;;;;;27.88;2.90;;;10.20;99.90;;;;;;5098596;28;20079;-76
2022/12/21 10:28:58;;;;;;;30.50;2.92;;;9.00;99.90;;;;;;5081552;28;20392;-76
2022/12/21 10:31:40;;;;;;;22.60;3.65;;;9.00;99.90;;;;;;5080740;28;20066;-76
2022/12/21 10:34:24;;;;;;;22.52;3.03;;;9.30;99.90;;;;;;5098752;28;20055;-76
2022/12/21 10:36:59;;;;;;;21.13;3.20;;;9.00;99.90;;;;;;5097364;28;20044;-76
2022/12/21 10:39:29;;;;;;;24.85;3.13;;;9.00;99.90;;;;;;5116495;28;20046;-75
2022/12/21 10:42:29;;;;;;;27.40;3.15;;;9.00;99.90;;;;;;5116156;28;20043;-75
2022/12/21 10:44:58;;;;;;;23.65;3.20;;;9.00;99.90;;;;;;5043601;28;20070;-76
2022/12/21 10:47:25;;;;;;;25.60;3.20;;;9.10;99.90;;;;;;5098190;28;20047;-76
2022/12/21 10:49:57;;;;;;;36.58;3.60;;;9.10;99.90;;;;;;5097469;28;20044;-76
2022/12/21 10:52:42;;;;;;;22.65;3.95;;;9.10;99.90;;;;;;5116307;28;20047;-75
2022/12/21 10:55:18;;;;;;;28.17;3.75;;;9.30;99.90;;;;;;5098251;28;20496;-76
2022/12/21 10:57:52;;;;;;;32.25;3.50;;;9.40;99.90;;;;;;5097072;28;20039;-76
2022/12/21 11:00:25;;;;;;;27.33;3.40;;;9.40;99.90;;;;;;5065110;28;20050;-77
2022/12/21 11:02:57;;;;;;;24.92;3.28;;;9.50;99.90;;;;;;5081562;28;20360;-76
2022/12/21 11:05:30;;;;;;;24.60;3.28;;;11.30;99.90;;;;;;5096705;28;20043;-76
2022/12/21 11:08:10;;;;;;;29.92;3.20;;;9.80;99.90;;;;;;5097769;28;20058;-76
2022/12/21 11:10:41;;;;;;;27.83;3.60;;;9.90;99.90;;;;;;5096804;28;20051;-76
2022/12/21 11:13:22;;;;;;;32.83;3.55;;;9.40;99.90;;;;;;5082354;28;20051;-76
2022/12/21 11:15:57;;;;;;;22.85;3.10;;;10.80;99.90;;;;;;5097738;28;20471;-75
2022/12/21 11:18:41;;;;;;;29.70;3.50;;;10.00;99.90;;;;;;5080593;28;20043;-76
2022/12/21 11:21:30;;;;;;;33.45;3.72;;;10.10;99.90;;;;;;5115124;28;20035;-76
2022/12/21 11:24:15;;;;;;;32.20;3.85;;;10.20;99.90;;;;;;5114397;28;20349;-76
2022/12/21 11:26:54;;;;;;;22.58;3.20;;;10.10;99.90;;;;;;5080906;28;20047;-77
2022/12/21 11:29:29;;;;;;;28.02;4.25;;;10.10;99.90;;;;;;5064900;28;20051;-76
2022/12/21 11:32:06;;;;;;;27.33;4.20;;;10.30;99.90;;;;;;5114252;28;20054;-77
2022/12/21 11:34:44;;;;;;;23.73;3.30;;;10.20;99.90;;;;;;5097583;28;20043;-75
2022/12/21 11:37:23;;;;;;;;;;;9.00;99.90;;;;;;5114697;28;20070;-76
2022/12/21 11:39:51;;;;;;;21.08;3.72;;;10.30;99.90;;;;;;5081083;28;19930;-77
2022/12/21 11:42:21;;;;;;;26.30;3.63;;;11.00;99.90;;;;;;5080825;28;20375;-77
2022/12/21 11:45:20;;;;;;;24.67;3.38;;;10.40;99.90;;;;;;5080073;28;20051;-78
2022/12/21 11:48:09;;;;;;;27.10;3.65;;;10.20;99.90;;;;;;5097226;28;20035;-77
2022/12/21 11:51:00;;;;;;;30.95;3.47;;;10.30;99.90;;;;;;5096572;28;20046;-77
2022/12/21 11:53:52;;;;;;;19.67;3.10;;;10.30;99.90;;;;;;5115469;28;20337;-77
2022/12/21 11:56:28;;;;;;;21.65;2.83;;;10.20;99.90;;;;;;5115329;28;20364;-77
2022/12/21 11:59:14;;;;;;;23.00;2.80;;;10.20;99.90;;;;;;5096541;28;20036;-77
2022/12/21 12:01:58;;;;;;;17.92;2.33;;;10.20;99.90;;;;;;5080731;28;20051;-77
2022/12/21 12:04:50;;;;;;;16.05;2.17;;;10.20;99.90;;;;;;5079167;28;20058;-76
2022/12/21 12:07:43;;;;;;;15.27;2.05;;;10.20;99.90;;;;;;5114947;28;20365;-77
2022/12/21 12:10:55;;;;;;;12.82;1.80;;;10.20;99.90;;;;;;5096010;28;20227;-77
2022/12/21 12:13:38;;;;;;;11.60;1.70;;;10.30;99.90;;;;;;5049411;28;20059;-77
2022/12/21 12:16:29;;;;;;;15.10;1.70;;;10.30;99.90;;;;;;5097255;28;20040;-77
2022/12/21 12:19:32;;;;;;;11.30;1.80;;;10.30;99.90;;;;;;5097073;28;20062;-77
2022/12/21 12:22:09;;;;;;;11.25;1.98;;;10.10;99.90;;;;;;5079736;28;20074;-76
2022/12/21 12:24:49;;;;;;;11.80;1.73;;;10.30;99.90;;;;;;5095601;28;20094;-78
2022/12/21 12:27:51;;;;;;;9.63;2.00;;;10.30;99.90;;;;;;5096748;28;20476;-77
2022/12/21 12:30:23;;;;;;;10.98;2.10;;;10.20;99.90;;;;;;5095612;28;20051;-77
2022/12/21 12:33:27;;;;;;;18.48;2.38;;;10.20;99.90;;;;;;5116912;28;20051;-77
2022/12/21 12:36:28;;;;;;;11.43;1.95;;;10.20;99.90;;;;;;5118147;28;20051;-79
2022/12/21 12:39:07;;;;;;;11.05;2.13;;;10.20;99.90;;;;;;5116836;28;20050;-78
2022/12/21 12:41:44;;;;;;;6.63;1.73;;;11.10;99.90;;;;;;5118242;28;20380;-78
2022/12/21 12:44:47;;;;;;;9.33;1.90;;;11.00;99.90;;;;;;5082377;28;20490;-78
2022/12/21 12:47:45;;;;;;;6.60;1.20;;;10.20;99.90;;;;;;5071785;28;20047;-78
2022/12/21 12:50:38;;;;;;;6.90;1.00;;;10.20;99.90;;;;;;5078328;28;20074;-79
2022/12/21 12:53:26;;;;;;;4.55;0.68;;;10.20;99.90;;;;;;5063114;28;20056;-79
2022/12/21 12:56:08;;;;;;;6.22;0.90;;;10.30;99.90;;;;;;5081313;28;20056;-79
2022/12/21 12:58:56;;;;;;;3.40;0.90;;;10.20;99.90;;;;;;5099135;28;20050;-79
2022/12/21 13:01:56;;;;;;;5.18;0.95;;;8.60;99.90;;;;;;5085762;28;20512;-79
2022/12/21 13:04:54;;;;;;;3.63;0.85;;;10.10;99.90;;;;;;5082166;28;20043;-78
2022/12/21 13:08:13;;;;;;;6.07;1.17;;;11.50;99.90;;;;;;5099887;28;20044;-78
2022/12/21 13:10:50;;;;;;;2.85;0.80;;;10.10;99.90;;;;;;5036071;28;20056;-78
2022/12/21 13:13:27;;;;;;;2.80;0.82;;;10.30;99.90;;;;;;5099736;28;20048;-78
2022/12/21 13:16:27;;;;;;;4.18;1.02;;;10.30;99.90;;;;;;5099755;28;20043;-79
2022/12/21 13:19:05;;;;;;;2.42;0.90;;;10.40;99.90;;;;;;5070874;28;20052;-78
2022/12/21 13:21:38;;;;;;;5.47;0.90;;;10.30;99.90;;;;;;5066276;28;20048;-79
2022/12/21 13:24:13;;;;;;;2.85;0.70;;;10.40;99.90;;;;;;5116827;28;20444;-79
2022/12/21 13:26:53;;;;;;;5.38;0.80;;;10.30;99.90;;;;;;5099645;28;20047;-78
2022/12/21 13:29:29;;;;;;;6.47;1.23;;;10.30;99.90;;;;;;5117371;28;20047;-78
2022/12/21 13:32:17;;;;;;;3.85;0.88;;;10.40;99.90;;;;;;5081432;28;20055;-79
2022/12/21 13:35:13;;;;;;;2.30;0.70;;;9.10;99.90;;;;;;5082395;28;20048;-79
2022/12/21 13:37:52;;;;;;;4.03;0.90;;;10.60;99.90;;;;;;5091035;28;20040;-77
2022/12/21 13:40:31;;;;;;;4.93;0.85;;;10.50;99.90;;;;;;5107391;28;20452;-77